createdAt,value
2023-12-02T00:01:34.037Z,24.35
2023-12-02T00:06:35.714Z,24.75
2023-12-02T00:11:37.494Z,23.77
2023-12-02T00:16:39.040Z,29.13
2023-12-02T00:21:40.546Z,23.63
2023-12-02T00:26:42.363Z,23.45
2023-12-02T00:31:46.890Z,26.33
2023-12-02T00:36:48.416Z,25.20
2023-12-02T00:41:49.934Z,28.83
2023-12-02T00:46:51.507Z,29.75
2023-12-02T00:51:53.287Z,22.98
2023-12-02T00:56:54.908Z,20.13
2023-12-02T01:01:56.552Z,33.58
2023-12-02T01:06:58.398Z,31.83
2023-12-02T01:12:00.032Z,31.35
2023-12-02T01:17:01.608Z,32.38
2023-12-02T01:22:03.140Z,33.03
2023-12-02T01:27:04.686Z,35.38
2023-12-02T01:32:06.619Z,31.17
2023-12-02T01:37:08.186Z,33.60
2023-12-02T01:42:09.794Z,27.15
2023-12-02T01:47:11.534Z,26.77
2023-12-02T01:52:13.032Z,29.63
2023-12-02T01:57:14.630Z,34.28
2023-12-02T02:02:16.358Z,36.47
2023-12-02T02:07:18.794Z,37.08
2023-12-02T02:12:20.660Z,37.38
2023-12-02T02:17:22.218Z,34.58
2023-12-02T02:22:23.784Z,34.53
2023-12-02T02:27:25.470Z,30.95
2023-12-02T02:32:27.134Z,34.85
2023-12-02T02:37:28.857Z,25.58
2023-12-02T02:42:31.026Z,32.42
2023-12-02T02:47:32.672Z,33.38
2023-12-02T02:52:34.360Z,40.20
2023-12-02T02:57:35.950Z,36.88
2023-12-02T03:02:37.596Z,30.95
2023-12-02T03:07:39.407Z,37.05
2023-12-02T03:12:40.898Z,38.58
2023-12-02T03:17:42.500Z,36.05
2023-12-02T03:22:44.146Z,37.80
2023-12-02T03:27:45.689Z,33.10
2023-12-02T03:32:50.598Z,32.25
2023-12-02T03:37:52.152Z,31.77
2023-12-02T03:42:53.808Z,30.17
2023-12-02T03:47:56.244Z,31.13
2023-12-02T03:53:00.009Z,24.40
2023-12-02T03:58:03.311Z,31.90
2023-12-02T04:03:04.966Z,32.78
2023-12-02T04:08:06.585Z,33.08
2023-12-02T04:13:08.325Z,31.88
2023-12-02T04:18:09.952Z,31.50
2023-12-02T04:23:11.544Z,31.48
2023-12-02T04:28:13.252Z,31.40
2023-12-02T04:33:15.007Z,29.48
2023-12-02T04:38:16.796Z,23.98
2023-12-02T04:43:20.713Z,29.73
2023-12-02T04:48:22.270Z,29.35
2023-12-02T04:53:24.017Z,28.33
2023-12-02T04:58:26.482Z,27.65
2023-12-02T05:03:28.144Z,24.00
2023-12-02T05:08:30.045Z,28.88
2023-12-02T05:13:31.924Z,22.77
2023-12-02T05:18:33.714Z,24.23
2023-12-02T05:23:35.327Z,30.17
2023-12-02T05:28:37.301Z,25.05
2023-12-02T05:33:38.997Z,25.05
2023-12-02T05:38:40.642Z,26.95
2023-12-02T05:43:42.271Z,26.88
2023-12-02T05:48:44.207Z,24.63
2023-12-02T05:53:46.029Z,26.30
2023-12-02T05:58:47.930Z,25.50
2023-12-02T06:03:51.624Z,18.25
2023-12-02T06:08:53.365Z,21.95
2023-12-02T06:13:55.479Z,22.45
2023-12-02T06:18:57.367Z,21.88
2023-12-02T06:24:02.328Z,24.15
2023-12-02T06:29:05.058Z,23.40
2023-12-02T06:34:07.177Z,23.10
2023-12-02T06:39:11.181Z,19.15
2023-12-02T06:44:12.752Z,26.00
2023-12-02T06:49:14.432Z,23.38
2023-12-02T06:54:16.145Z,22.25
2023-12-02T06:59:20.750Z,23.83
2023-12-02T07:04:22.350Z,22.70
2023-12-02T07:09:24.226Z,25.13
2023-12-02T07:14:25.884Z,21.83
2023-12-02T07:19:27.853Z,26.90
2023-12-02T09:04:18.739Z,28.55
2023-12-02T09:09:20.584Z,36.22
2023-12-02T09:14:22.155Z,32.08
2023-12-02T09:19:23.829Z,28.45
2023-12-02T09:24:26.263Z,24.55
2023-12-02T09:29:27.826Z,31.00
2023-12-02T11:23:36.113Z,19.95
2023-12-02T11:51:28.364Z,13.15
2023-12-02T11:56:29.960Z,15.63
2023-12-02T12:01:31.508Z,13.45
2023-12-02T12:06:33.162Z,11.75
2023-12-02T12:11:34.754Z,16.20
2023-12-02T12:16:42.685Z,16.38
2023-12-02T12:21:45.315Z,17.65
2023-12-02T12:26:47.062Z,16.73
2023-12-02T12:31:48.622Z,17.75
2023-12-02T12:36:50.161Z,12.25
2023-12-02T12:41:51.740Z,10.68
2023-12-02T12:46:53.343Z,14.27
2023-12-02T12:55:25.580Z,11.32
2023-12-02T13:00:27.980Z,11.43
2023-12-02T13:05:29.925Z,13.07
2023-12-02T13:10:32.694Z,10.65
2023-12-02T13:15:34.318Z,14.60
2023-12-02T13:20:35.898Z,11.05
2023-12-02T13:25:37.479Z,8.85
2023-12-02T13:30:39.626Z,10.10
2023-12-02T13:35:43.322Z,11.73
2023-12-02T13:40:44.904Z,10.07
2023-12-02T13:45:46.677Z,10.43
2023-12-02T13:50:48.507Z,7.25
2023-12-02T13:55:50.024Z,5.90
2023-12-02T14:00:51.572Z,6.53
2023-12-02T14:05:53.132Z,6.55
2023-12-02T14:10:54.686Z,7.05
2023-12-02T14:15:56.264Z,7.45
2023-12-02T14:20:57.873Z,6.15
2023-12-02T14:25:59.574Z,5.90
2023-12-02T14:31:01.250Z,5.53
2023-12-02T14:36:02.870Z,4.25
2023-12-02T14:41:04.502Z,5.72
2023-12-02T14:46:06.066Z,4.68
2023-12-02T14:51:07.830Z,5.80
2023-12-02T14:56:09.385Z,6.72
2023-12-02T15:01:10.885Z,5.25
2023-12-02T15:06:13.955Z,4.78
2023-12-02T15:11:15.727Z,5.85
2023-12-02T15:16:17.324Z,8.15
2023-12-02T15:21:20.434Z,6.25
2023-12-02T15:26:24.511Z,6.82
2023-12-02T15:36:27.653Z,12.20
2023-12-02T15:41:29.234Z,6.78
2023-12-02T15:46:31.382Z,10.32
2023-12-02T15:51:33.672Z,12.30
2023-12-02T15:56:35.411Z,10.70
2023-12-02T16:01:38.132Z,12.75
2023-12-02T16:06:39.907Z,11.55
2023-12-02T16:11:41.623Z,12.93
2023-12-02T16:16:43.250Z,12.88
2023-12-02T16:21:44.996Z,10.15
2023-12-02T16:26:46.984Z,14.52
2023-12-02T16:31:48.694Z,12.35
2023-12-02T16:36:50.333Z,15.85
2023-12-02T16:41:52.042Z,15.65
2023-12-02T16:46:53.553Z,11.07
2023-12-02T16:51:55.139Z,15.00
2023-12-02T16:56:56.730Z,10.60
2023-12-02T17:01:58.473Z,12.57
2023-12-02T17:07:00.284Z,10.25
2023-12-02T17:12:05.284Z,9.20
2023-12-02T17:17:07.087Z,10.52
2023-12-02T17:22:16.969Z,10.82
2023-12-02T17:27:18.536Z,10.35
2023-12-02T17:32:20.156Z,10.57
2023-12-02T17:37:21.764Z,8.90
2023-12-02T17:42:23.445Z,9.85
2023-12-02T17:47:25.252Z,8.50
2023-12-02T17:52:27.085Z,9.13
2023-12-02T17:57:28.621Z,7.15
2023-12-02T18:02:30.545Z,10.27
2023-12-02T18:07:32.161Z,8.00
2023-12-02T18:12:34.729Z,9.65
2023-12-02T18:17:36.420Z,9.48
2023-12-02T18:22:37.937Z,9.40
2023-12-02T18:27:40.058Z,8.82
2023-12-02T18:32:41.829Z,9.55
2023-12-02T18:37:43.639Z,11.32
2023-12-02T18:42:45.256Z,11.55
2023-12-02T18:47:46.941Z,8.02
2023-12-02T18:52:48.537Z,7.95
2023-12-02T18:57:50.091Z,7.32
2023-12-02T19:02:51.722Z,9.35
2023-12-02T19:07:53.466Z,7.70
2023-12-02T19:12:55.108Z,6.03
2023-12-02T19:17:56.724Z,6.25
2023-12-02T19:22:58.322Z,8.82
2023-12-02T19:28:00.137Z,5.35
2023-12-02T19:33:01.939Z,8.23
2023-12-02T19:38:03.630Z,6.45
2023-12-02T19:43:05.389Z,10.18
2023-12-02T19:48:07.903Z,7.43
2023-12-02T19:53:10.036Z,7.43
2023-12-02T19:58:11.910Z,6.63
2023-12-02T20:03:13.686Z,7.07
2023-12-02T20:08:15.840Z,5.90
2023-12-02T20:13:25.183Z,5.03
2023-12-02T20:18:27.539Z,7.45
2023-12-02T20:23:29.056Z,5.20
2023-12-02T20:33:58.531Z,8.18
2023-12-02T20:44:00.492Z,8.25
2023-12-02T20:54:02.103Z,8.93
2023-12-02T21:04:04.316Z,7.70
2023-12-02T21:14:06.482Z,7.13
2023-12-02T21:24:08.440Z,8.65
2023-12-02T21:34:10.469Z,4.95
2023-12-02T21:44:12.662Z,6.20
2023-12-02T21:54:14.852Z,7.10
2023-12-02T22:04:16.539Z,6.90
2023-12-02T22:14:18.174Z,6.95
2023-12-02T22:24:19.940Z,5.40
2023-12-02T22:34:21.959Z,4.88
2023-12-02T22:44:23.690Z,3.72
2023-12-02T22:54:25.274Z,4.78
2023-12-02T23:04:27.240Z,3.90
2023-12-02T23:14:28.920Z,3.28
2023-12-02T23:24:30.567Z,3.45
2023-12-02T23:34:32.508Z,2.90
2023-12-02T23:44:34.163Z,3.05
2023-12-02T23:54:36.569Z,3.55
